Time,TemperatureF,DewpointF,PressureIn,WindDirection,WindDirectionDegrees,WindSpeedMPH,WindSpeedGustMPH,Humidity,HourlyPrecipIn,Conditions,Clouds,dailyrainin,SolarRadiationWatts/m^2,SoftwareType,DateUTC
2013-06-24 00:01:00,79.5,68.9,29.89,SSE,157,7.0,11.5,70,0.00,CLR,,0.00,0.0,WeatherDisplay:10.37,2013-06-24 05:01:00,
2013-06-24 00:06:00,79.8,69.1,29.88,SSE,156,3.0,5.8,70,0.00,CLR,,0.00,0.0,WeatherDisplay:10.37,2013-06-24 05:06:00,
2013-06-24 00:11:00,79.7,68.6,29.89,SSE,153,4.1,6.9,69,0.00,CLR,,0.00,0.0,WeatherDisplay:10.37,2013-06-24 05:11:00,
2013-06-24 00:16:00,80.0,68.5,29.89,SE,146,6.1,10.4,68,0.00,CLR,,0.00,0.0,WeatherDisplay:10.37,2013-06-24 05:16:00,
2013-06-24 00:21:00,80.0,68.5,29.89,SSE,148,5.6,8.1,68,0.00,CLR,,0.00,0.0,WeatherDisplay:10.37,2013-06-24 05:21:00,
2013-06-24 00:26:00,80.0,68.5,29.89,SSE,167,5.0,10.4,68,0.00,CLR,,0.00,0.0,WeatherDisplay:10.37,2013-06-24 05:26:00,
2013-06-24 00:31:00,80.1,68.6,29.89,SSE,147,4.9,11.5,68,0.00,CLR,,0.00,0.0,WeatherDisplay:10.37,2013-06-24 05:31:00,
2013-06-24 00:36:00,80.0,68.5,29.89,SSE,150,2.6,6.9,68,0.00,CLR,,0.00,0.0,WeatherDisplay:10.37,2013-06-24 05:36:00,
2013-06-24 00:41:00,79.8,68.3,29.89,SE,144,6.5,10.0,68,0.00,CLR,,0.00,0.0,WeatherDisplay:10.37,2013-06-24 05:41:00,
2013-06-24 00:46:00,79.9,68.4,29.89,SE,145,5.1,10.0,68,0.00,CLR,,0.00,0.0,WeatherDisplay:10.37,2013-06-24 05:46:00,
2013-06-24 00:52:00,79.7,68.2,29.89,SSE,163,3.1,12.7,68,0.00,CLR,,0.00,0.0,WeatherDisplay:10.37,2013-06-24 05:52:00,
2013-06-24 00:57:00,79.8,68.3,29.89,SSE,149,5.6,11.0,68,0.00,CLR,,0.00,0.0,WeatherDisplay:10.37,2013-06-24 05:57:00,
2013-06-24 01:02:00,79.8,68.3,29.89,SSE,151,5.7,9.2,68,0.00,CLR,,0.00,0.0,WeatherDisplay:10.37,2013-06-24 06:02:00,
2013-06-24 01:07:00,79.4,68.3,29.89,SSE,158,5.5,12.7,69,0.00,CLR,,0.00,0.0,WeatherDisplay:10.37,2013-06-24 06:07:00,
2013-06-24 01:13:00,79.4,68.3,29.89,SE,145,3.1,6.9,69,0.00,CLR,,0.00,0.0,WeatherDisplay:10.37,2013-06-24 06:13:00,
2013-06-24 01:18:00,79.4,68.8,29.89,SSE,153,6.4,13.8,70,0.00,CLR,,0.00,0.0,WeatherDisplay:10.37,2013-06-24 06:18:00,
2013-06-24 01:23:00,79.4,68.3,29.89,SSE,152,4.9,13.8,69,0.00,CLR,,0.00,0.0,WeatherDisplay:10.37,2013-06-24 06:23:00,
2013-06-24 01:28:00,79.5,68.4,29.89,SSE,152,7.7,13.8,69,0.00,CLR,,0.00,0.0,WeatherDisplay:10.37,2013-06-24 06:28:00,
2013-06-24 01:33:00,79.4,68.8,29.89,SSE,155,2.9,10.0,70,0.00,CLR,,0.00,0.0,WeatherDisplay:10.37,2013-06-24 06:33:00,
2013-06-24 01:39:00,79.1,68.5,29.89,SSE,151,4.7,8.1,70,0.00,CLR,,0.00,0.0,WeatherDisplay:10.37,2013-06-24 06:39:00,
2013-06-24 01:44:00,79.0,68.8,29.89,SSE,149,6.1,10.4,71,0.00,CLR,,0.00,0.0,WeatherDisplay:10.37,2013-06-24 06:44:00,
2013-06-24 01:50:00,78.9,68.7,29.89,SSE,160,4.3,9.2,71,0.00,CLR,,0.00,0.0,WeatherDisplay:10.37,2013-06-24 06:50:00,
2013-06-24 01:55:00,78.9,68.7,29.89,SSE,151,3.2,10.4,71,0.00,CLR,,0.00,0.0,WeatherDisplay:10.37,2013-06-24 06:55:00,
2013-06-24 02:00:00,78.7,68.9,29.89,SSE,154,4.4,11.5,72,0.00,CLR,,0.00,0.0,WeatherDisplay:10.37,2013-06-24 07:00:00,
2013-06-24 02:05:00,78.6,68.8,29.89,SSE,154,5.4,12.7,72,0.00,CLR,,0.00,0.0,WeatherDisplay:10.37,2013-06-24 07:05:00,
2013-06-24 02:11:00,78.6,69.2,29.89,South,178,7.2,11.5,73,0.00,CLR,,0.00,0.0,WeatherDisplay:10.37,2013-06-24 07:11:00,
2013-06-24 02:16:00,78.5,69.1,29.90,SSE,160,4.0,8.1,73,0.00,CLR,,0.00,0.0,WeatherDisplay:10.37,2013-06-24 07:16:00,
2013-06-24 02:22:00,78.3,69.3,29.90,SSE,155,6.4,11.5,74,0.00,CLR,,0.00,0.0,WeatherDisplay:10.37,2013-06-24 07:22:00,
2013-06-24 02:27:00,78.2,69.6,29.89,SSE,156,4.7,13.0,75,0.00,CLR,,0.00,0.0,WeatherDisplay:10.37,2013-06-24 07:27:00,
2013-06-24 02:32:00,78.4,69.8,29.89,South,171,4.9,9.2,75,0.00,CLR,,0.00,0.0,WeatherDisplay:10.37,2013-06-24 07:32:00,
2013-06-24 02:37:00,78.4,69.8,29.89,SSE,152,3.2,6.0,75,0.00,CLR,,0.00,0.0,WeatherDisplay:10.37,2013-06-24 07:37:00,
2013-06-24 02:43:00,78.3,69.7,29.89,SSE,156,6.5,14.0,75,0.00,CLR,,0.00,0.0,WeatherDisplay:10.37,2013-06-24 07:43:00,
2013-06-24 02:48:00,78.2,69.6,29.90,SSE,154,4.9,9.2,75,0.00,CLR,,0.00,0.0,WeatherDisplay:10.37,2013-06-24 07:48:00,
2013-06-24 02:53:00,78.2,69.6,29.90,SSE,154,5.0,13.0,75,0.00,CLR,,0.00,0.0,WeatherDisplay:10.37,2013-06-24 07:53:00,
2013-06-24 02:58:00,78.1,69.9,29.90,SSE,160,2.0,5.8,76,0.00,CLR,,0.00,0.0,WeatherDisplay:10.37,2013-06-24 07:58:00,
2013-06-24 03:04:00,77.9,69.7,29.90,SSE,153,4.7,11.0,76,0.00,CLR,,0.00,0.0,WeatherDisplay:10.37,2013-06-24 08:04:00,
2013-06-24 03:09:00,78.0,69.8,29.90,SE,142,6.3,11.5,76,0.00,CLR,,0.00,0.0,WeatherDisplay:10.37,2013-06-24 08:09:00,
2013-06-24 03:14:00,78.1,69.9,29.90,SSE,148,2.6,4.6,76,0.00,CLR,,0.00,0.0,WeatherDisplay:10.37,2013-06-24 08:14:00,
2013-06-24 03:19:00,77.8,69.6,29.90,SSE,155,5.5,10.4,76,0.00,CLR,,0.00,0.0,WeatherDisplay:10.37,2013-06-24 08:19:00,
2013-06-24 03:25:00,77.6,69.8,29.90,SSE,154,2.5,5.8,77,0.00,CLR,,0.00,0.0,WeatherDisplay:10.37,2013-06-24 08:25:00,
2013-06-24 03:30:00,77.5,69.7,29.90,SSE,158,6.0,11.5,77,0.00,CLR,,0.00,0.0,WeatherDisplay:10.37,2013-06-24 08:30:00,
2013-06-24 03:35:00,77.5,69.7,29.90,South,176,1.2,4.6,77,0.00,CLR,,0.00,0.0,WeatherDisplay:10.37,2013-06-24 08:35:00,
2013-06-24 03:40:00,77.3,69.9,29.91,SSE,161,2.8,6.9,78,0.00,CLR,,0.00,0.0,WeatherDisplay:10.37,2013-06-24 08:40:00,
2013-06-24 03:45:00,77.2,69.8,29.91,SSE,153,4.1,5.8,78,0.00,CLR,,0.00,0.0,WeatherDisplay:10.37,2013-06-24 08:45:00,
2013-06-24 03:50:00,77.1,69.7,29.91,SSE,151,4.0,6.0,78,0.00,CLR,,0.00,0.0,WeatherDisplay:10.37,2013-06-24 08:50:00,
2013-06-24 03:55:00,77.0,70.0,29.91,SSE,151,3.8,6.9,79,0.00,CLR,,0.00,0.0,WeatherDisplay:10.37,2013-06-24 08:55:00,
2013-06-24 04:00:00,77.0,70.0,29.91,SSE,149,3.2,9.2,79,0.00,CLR,,0.00,0.0,WeatherDisplay:10.37,2013-06-24 09:00:00,
2013-06-24 04:05:00,76.9,69.9,29.91,SSE,149,2.2,5.0,79,0.00,CLR,,0.00,0.0,WeatherDisplay:10.37,2013-06-24 09:05:00,
2013-06-24 04:11:00,76.7,70.1,29.91,SSE,149,3.4,8.0,80,0.00,CLR,,0.00,0.0,WeatherDisplay:10.37,2013-06-24 09:11:00,
2013-06-24 04:16:00,76.4,69.8,29.90,SSE,149,4.9,7.0,80,0.00,CLR,,0.00,0.0,WeatherDisplay:10.37,2013-06-24 09:16:00,
2013-06-24 04:21:00,76.3,70.0,29.90,SSE,151,3.3,8.1,81,0.00,CLR,,0.00,0.0,WeatherDisplay:10.37,2013-06-24 09:21:00,
2013-06-24 04:27:00,76.2,69.9,29.91,SSE,152,5.9,12.7,81,0.00,CLR,,0.00,0.0,WeatherDisplay:10.37,2013-06-24 09:27:00,
2013-06-24 04:32:00,76.4,69.8,29.91,SSE,151,1.6,9.2,80,0.00,CLR,,0.00,0.0,WeatherDisplay:10.37,2013-06-24 09:32:00,
2013-06-24 04:37:00,76.2,69.9,29.91,SSE,149,3.3,8.1,81,0.00,CLR,,0.00,0.0,WeatherDisplay:10.37,2013-06-24 09:37:00,
2013-06-24 04:42:00,76.1,69.8,29.91,SSE,149,0.8,4.6,81,0.00,CLR,,0.00,0.0,WeatherDisplay:10.37,2013-06-24 09:42:00,
2013-06-24 04:48:00,76.0,69.7,29.91,SSE,156,3.6,9.2,81,0.00,CLR,,0.00,0.0,WeatherDisplay:10.37,2013-06-24 09:48:00,
2013-06-24 04:53:00,75.9,69.6,29.91,SSE,154,3.4,9.2,81,0.00,CLR,,0.00,0.0,WeatherDisplay:10.37,2013-06-24 09:53:00,
2013-06-24 04:59:00,76.0,69.7,29.91,South,179,2.2,9.2,81,0.00,CLR,,0.00,0.0,WeatherDisplay:10.37,2013-06-24 09:59:00,
2013-06-24 05:04:00,75.7,69.8,29.91,SSE,168,3.8,10.4,82,0.00,CLR,,0.00,0.0,WeatherDisplay:10.37,2013-06-24 10:04:00,
2013-06-24 05:09:00,75.5,69.6,29.91,SSE,160,1.3,6.9,82,0.00,CLR,,0.00,0.0,WeatherDisplay:10.37,2013-06-24 10:09:00,
2013-06-24 05:14:00,75.5,69.6,29.92,SSE,151,3.4,5.0,82,0.00,CLR,,0.00,0.0,WeatherDisplay:10.37,2013-06-24 10:14:00,
2013-06-24 05:19:00,75.4,69.5,29.92,SSE,151,4.2,6.9,82,0.00,CLR,,0.00,0.0,WeatherDisplay:10.37,2013-06-24 10:19:00,
2013-06-24 05:25:00,75.3,69.4,29.92,SSE,151,3.7,5.8,82,0.00,CLR,,0.00,0.0,WeatherDisplay:10.37,2013-06-24 10:25:00,
2013-06-24 05:30:00,75.2,69.7,29.92,SE,145,3.9,8.1,83,0.00,CLR,,0.00,0.0,WeatherDisplay:10.37,2013-06-24 10:30:00,
2013-06-24 05:35:00,75.1,69.2,29.92,SSE,151,3.9,8.1,82,0.00,CLR,,0.00,0.0,WeatherDisplay:10.37,2013-06-24 10:35:00,
2013-06-24 05:41:00,75.0,69.5,29.92,SSE,154,2.3,6.0,83,0.00,CLR,,0.00,0.0,WeatherDisplay:10.37,2013-06-24 10:41:00,
2013-06-24 05:46:00,75.0,69.5,29.92,SSE,150,3.7,6.0,83,0.00,CLR,,0.00,0.0,WeatherDisplay:10.37,2013-06-24 10:46:00,
2013-06-24 05:51:00,75.0,69.5,29.92,SSE,147,2.5,12.7,83,0.00,CLR,,0.00,0.0,WeatherDisplay:10.37,2013-06-24 10:51:00,
2013-06-24 05:56:00,74.9,69.4,29.92,SSE,147,2.5,8.1,83,0.00,CLR,,0.00,0.0,WeatherDisplay:10.37,2013-06-24 10:56:00,
2013-06-24 06:02:00,74.5,69.3,29.92,SSE,147,2.1,8.1,84,0.00,CLR,,0.00,0.0,WeatherDisplay:10.37,2013-06-24 11:02:00,
2013-06-24 06:07:00,74.2,69.1,29.92,SSE,147,2.0,9.2,84,0.00,CLR,,0.00,0.0,WeatherDisplay:10.37,2013-06-24 11:07:00,
2013-06-24 06:12:00,74.0,68.9,29.92,SSE,148,4.1,8.1,84,0.00,CLR,,0.00,0.0,WeatherDisplay:10.37,2013-06-24 11:12:00,
2013-06-24 06:17:00,74.2,69.1,29.92,SSE,151,1.0,6.9,84,0.00,CLR,,0.00,0.0,WeatherDisplay:10.37,2013-06-24 11:17:00,
2013-06-24 06:22:00,74.2,69.1,29.93,SSE,152,3.1,9.2,84,0.00,CLR,,0.00,0.0,WeatherDisplay:10.37,2013-06-24 11:22:00,
2013-06-24 06:28:00,74.0,68.9,29.93,SSE,152,1.3,4.0,84,0.00,CLR,,0.00,5.5,WeatherDisplay:10.37,2013-06-24 11:28:00,
2013-06-24 06:33:00,74.2,69.1,29.93,South,179,3.0,6.9,84,0.00,CLR,,0.00,9.9,WeatherDisplay:10.37,2013-06-24 11:33:00,
2013-06-24 06:39:00,74.2,69.1,29.93,South,178,1.2,6.9,84,0.00,CLR,,0.00,13.2,WeatherDisplay:10.37,2013-06-24 11:39:00,
2013-06-24 06:44:00,74.1,68.6,29.93,South,174,1.4,4.0,83,0.00,CLR,,0.00,17.6,WeatherDisplay:10.37,2013-06-24 11:44:00,
2013-06-24 06:49:00,74.1,68.6,29.93,SSE,162,1.4,9.2,83,0.00,CLR,,0.00,20.9,WeatherDisplay:10.37,2013-06-24 11:49:00,
2013-06-24 06:54:00,74.2,68.7,29.93,South,172,4.6,8.1,83,0.00,CLR,,0.00,25.3,WeatherDisplay:10.37,2013-06-24 11:54:00,
2013-06-24 07:00:00,74.2,68.7,29.94,South,170,1.9,5.8,83,0.00,CLR,,0.00,30.8,WeatherDisplay:10.37,2013-06-24 12:00:00,
2013-06-24 07:05:00,74.1,69.0,29.94,South,188,1.3,8.0,84,0.00,CLR,,0.00,33.0,WeatherDisplay:10.37,2013-06-24 12:05:00,
2013-06-24 07:10:00,74.1,69.0,29.94,SSE,165,0.8,5.0,84,0.00,CLR,,0.00,35.2,WeatherDisplay:10.37,2013-06-24 12:10:00,
2013-06-24 07:16:00,74.1,69.0,29.94,South,176,2.6,8.1,84,0.00,CLR,,0.00,40.7,WeatherDisplay:10.37,2013-06-24 12:16:00,
2013-06-24 07:21:00,74.2,68.7,29.94,South,185,3.6,5.8,83,0.00,CLR,,0.00,42.9,WeatherDisplay:10.37,2013-06-24 12:21:00,
2013-06-24 07:26:00,74.4,68.9,29.94,South,171,2.2,6.0,83,0.00,CLR,,0.00,50.6,WeatherDisplay:10.37,2013-06-24 12:26:00,
2013-06-24 07:31:00,74.4,68.9,29.94,SSE,167,3.5,6.9,83,0.00,CLR,,0.00,48.4,WeatherDisplay:10.37,2013-06-24 12:31:00,
2013-06-24 07:36:00,74.6,69.1,29.95,SSE,163,2.7,4.6,83,0.00,CLR,,0.00,66.0,WeatherDisplay:10.37,2013-06-24 12:36:00,
2013-06-24 07:41:00,74.9,69.4,29.95,South,176,1.9,3.5,83,0.00,CLR,,0.00,71.5,WeatherDisplay:10.37,2013-06-24 12:41:00,
2013-06-24 07:46:00,75.1,69.6,29.95,SSW,201,4.8,10.4,83,0.00,CLR,,0.00,63.8,WeatherDisplay:10.37,2013-06-24 12:46:00,
2013-06-24 07:51:00,75.4,69.9,29.95,SSE,158,2.5,6.0,83,0.00,CLR,,0.00,66.0,WeatherDisplay:10.37,2013-06-24 12:51:00,
2013-06-24 07:56:00,75.6,69.7,29.96,South,172,5.3,9.2,82,0.00,CLR,,0.00,63.8,WeatherDisplay:10.37,2013-06-24 12:56:00,
2013-06-24 08:02:00,75.6,69.4,29.96,South,170,2.6,9.2,81,0.00,CLR,,0.00,69.3,WeatherDisplay:10.37,2013-06-24 13:02:00,
2013-06-24 08:07:00,75.7,69.5,29.96,SSW,192,5.4,13.8,81,0.00,CLR,,0.00,83.6,WeatherDisplay:10.37,2013-06-24 13:07:00,
2013-06-24 08:12:00,75.9,70.0,29.96,SSE,156,4.5,10.4,82,0.00,CLR,,0.00,92.4,WeatherDisplay:10.37,2013-06-24 13:12:00,
2013-06-24 08:17:00,76.1,69.8,29.96,SSE,149,7.4,10.4,81,0.00,CLR,,0.00,75.9,WeatherDisplay:10.37,2013-06-24 13:17:00,
2013-06-24 08:22:00,76.5,70.2,29.96,SSW,193,3.3,9.2,81,0.00,CLR,,0.00,91.3,WeatherDisplay:10.37,2013-06-24 13:22:00,
2013-06-24 08:28:00,76.7,70.1,29.96,SSW,210,1.8,6.9,80,0.00,CLR,,0.00,84.7,WeatherDisplay:10.37,2013-06-24 13:28:00,
2013-06-24 08:33:00,77.0,70.7,29.97,SSE,163,3.4,6.9,81,0.00,CLR,,0.00,86.9,WeatherDisplay:10.37,2013-06-24 13:33:00,
2013-06-24 08:39:00,77.3,70.6,29.97,SSW,192,5.4,11.5,80,0.00,CLR,,0.00,89.1,WeatherDisplay:10.37,2013-06-24 13:39:00,
2013-06-24 08:45:00,77.7,70.7,29.97,SSW,193,6.2,11.5,79,0.00,CLR,,0.00,127.6,WeatherDisplay:10.37,2013-06-24 13:45:00,
2013-06-24 08:50:00,78.3,70.9,29.97,SSW,200,4.4,11.5,78,0.00,CLR,,0.00,379.5,WeatherDisplay:10.37,2013-06-24 13:50:00,
2013-06-24 08:55:00,78.9,71.5,29.97,SSW,193,6.5,11.0,78,0.00,CLR,,0.00,394.9,WeatherDisplay:10.37,2013-06-24 13:55:00,
2013-06-24 09:00:00,79.1,71.6,29.97,SSE,168,3.2,8.1,78,0.00,CLR,,0.00,418.0,WeatherDisplay:10.37,2013-06-24 14:00:00,
2013-06-24 09:06:00,79.7,71.5,29.97,South,191,9.7,16.1,76,0.00,CLR,,0.00,438.9,WeatherDisplay:10.37,2013-06-24 14:06:00,
2013-06-24 09:11:00,79.8,71.2,29.97,SSW,199,9.4,17.3,75,0.00,CLR,,0.00,464.2,WeatherDisplay:10.37,2013-06-24 14:11:00,
2013-06-24 09:16:00,80.4,72.1,29.97,SSE,158,5.2,9.2,76,0.00,CLR,,0.00,477.4,WeatherDisplay:10.37,2013-06-24 14:16:00,
2013-06-24 09:22:00,79.7,71.1,29.97,SSW,206,6.7,17.0,75,0.00,CLR,,0.00,504.9,WeatherDisplay:10.37,2013-06-24 14:22:00,
2013-06-24 09:27:00,79.9,70.9,29.97,South,178,9.8,19.6,74,0.00,CLR,,0.00,514.8,WeatherDisplay:10.37,2013-06-24 14:27:00,
2013-06-24 09:32:00,80.2,71.2,29.97,South,187,14.0,22.0,74,0.00,CLR,,0.00,541.2,WeatherDisplay:10.37,2013-06-24 14:32:00,
2013-06-24 09:38:00,80.4,71.3,29.97,SSE,147,7.2,13.8,74,0.00,CLR,,0.00,566.5,WeatherDisplay:10.37,2013-06-24 14:38:00,
2013-06-24 09:43:00,80.7,71.2,29.97,SSE,163,8.9,13.8,73,0.00,CLR,,0.00,591.8,WeatherDisplay:10.37,2013-06-24 14:43:00,
2013-06-24 09:48:00,80.7,71.2,29.97,South,174,9.0,16.1,73,0.00,CLR,,0.00,599.5,WeatherDisplay:10.37,2013-06-24 14:48:00,
2013-06-24 09:53:00,80.7,71.6,29.97,South,178,8.0,13.0,74,0.00,CLR,,0.00,617.1,WeatherDisplay:10.37,2013-06-24 14:53:00,
2013-06-24 09:59:00,81.3,71.8,29.97,South,172,3.4,18.4,73,0.00,CLR,,0.00,634.7,WeatherDisplay:10.37,2013-06-24 14:59:00,
2013-06-24 10:04:00,81.3,71.0,29.96,South,191,9.9,15.0,71,0.00,CLR,,0.00,653.4,WeatherDisplay:10.37,2013-06-24 15:04:00,
2013-06-24 10:09:00,81.9,72.4,29.96,SSW,192,7.0,7.0,73,0.00,CLR,,0.00,668.8,WeatherDisplay:10.37,2013-06-24 15:09:00,
2013-06-24 10:14:00,82.0,71.7,29.97,South,169,9.1,17.3,71,0.00,CLR,,0.00,688.6,WeatherDisplay:10.37,2013-06-24 15:14:00,
2013-06-24 10:19:00,82.2,72.7,29.97,South,189,3.5,7.0,73,0.00,CLR,,0.00,699.6,WeatherDisplay:10.37,2013-06-24 15:19:00,
2013-06-24 10:24:00,82.4,72.0,29.96,SSW,193,6.9,18.4,71,0.00,CLR,,0.00,721.6,WeatherDisplay:10.37,2013-06-24 15:24:00,
2013-06-24 10:29:00,82.7,72.3,29.97,SSE,160,4.0,10.4,71,0.00,CLR,,0.00,732.6,WeatherDisplay:10.37,2013-06-24 15:29:00,
2013-06-24 10:34:00,82.9,72.5,29.97,SSW,198,11.3,19.6,71,0.00,CLR,,0.00,744.7,WeatherDisplay:10.37,2013-06-24 15:34:00,
2013-06-24 10:39:00,82.8,71.2,29.97,SSW,194,14.5,24.2,68,0.00,CLR,,0.00,757.9,WeatherDisplay:10.37,2013-06-24 15:39:00,
2013-06-24 10:44:00,83.6,71.9,29.97,SSW,202,10.1,19.0,68,0.00,CLR,,0.00,773.3,WeatherDisplay:10.37,2013-06-24 15:44:00,
2013-06-24 10:49:00,83.6,72.3,29.97,SSW,198,12.6,15.0,69,0.00,CLR,,0.00,785.4,WeatherDisplay:10.37,2013-06-24 15:49:00,
2013-06-24 10:56:00,83.7,72.4,29.97,SSW,197,9.3,19.6,69,0.00,CLR,,0.00,806.3,WeatherDisplay:10.37,2013-06-24 15:56:00,
2013-06-24 11:01:00,84.3,72.6,29.97,SSW,210,15.3,19.6,68,0.00,CLR,,0.00,819.5,WeatherDisplay:10.37,2013-06-24 16:01:00,
2013-06-24 11:07:00,84.5,71.9,29.97,SSW,199,13.6,21.9,66,0.00,CLR,,0.00,834.9,WeatherDisplay:10.37,2013-06-24 16:07:00,
2013-06-24 11:12:00,84.0,71.9,29.97,South,191,10.0,18.0,67,0.00,CLR,,0.00,856.9,WeatherDisplay:10.37,2013-06-24 16:12:00,
2013-06-24 11:17:00,83.8,71.7,29.97,South,188,5.8,9.2,67,0.00,CLR,,0.00,850.3,WeatherDisplay:10.37,2013-06-24 16:17:00,
2013-06-24 11:23:00,84.5,72.3,29.97,SSW,195,15.3,21.0,67,0.00,CLR,,0.00,877.8,WeatherDisplay:10.37,2013-06-24 16:23:00,
2013-06-24 11:28:00,85.1,72.0,29.97,SSW,196,12.9,19.6,65,0.00,CLR,,0.00,889.9,WeatherDisplay:10.37,2013-06-24 16:28:00,
2013-06-24 11:33:00,84.9,71.4,29.97,SSE,162,4.9,12.7,64,0.00,CLR,,0.00,908.6,WeatherDisplay:10.37,2013-06-24 16:33:00,
2013-06-24 11:38:00,84.7,71.6,29.97,SSE,151,9.8,15.0,65,0.00,CLR,,0.00,908.6,WeatherDisplay:10.37,2013-06-24 16:38:00,
2013-06-24 11:43:00,85.1,71.5,29.97,SW,217,13.2,21.0,64,0.00,CLR,,0.00,930.6,WeatherDisplay:10.37,2013-06-24 16:43:00,
2013-06-24 11:49:00,85.7,73.5,29.96,SSW,193,7.8,15.0,67,0.00,CLR,,0.00,949.3,WeatherDisplay:10.37,2013-06-24 16:49:00,
2013-06-24 11:54:00,86.2,73.0,29.96,South,185,7.8,15.0,65,0.00,CLR,,0.00,920.7,WeatherDisplay:10.37,2013-06-24 16:54:00,
2013-06-24 12:00:00,85.7,72.6,29.96,SSW,193,6.3,19.0,65,0.00,CLR,,0.00,898.7,WeatherDisplay:10.37,2013-06-24 17:00:00,
2013-06-24 12:05:00,85.8,72.2,29.96,South,190,6.9,16.1,64,0.00,CLR,,0.00,816.2,WeatherDisplay:10.37,2013-06-24 17:05:00,
2013-06-24 12:10:00,85.6,72.5,29.96,SSE,160,4.2,11.5,65,0.00,CLR,,0.00,634.7,WeatherDisplay:10.37,2013-06-24 17:10:00,
2013-06-24 12:15:00,85.2,72.6,29.96,SSE,158,9.3,19.6,66,0.00,CLR,,0.00,785.4,WeatherDisplay:10.37,2013-06-24 17:15:00,
2013-06-24 12:21:00,85.8,72.2,29.95,SSE,156,5.9,11.5,64,0.00,CLR,,0.00,997.7,WeatherDisplay:10.37,2013-06-24 17:21:00,
2013-06-24 12:26:00,86.4,72.8,29.95,SSE,158,8.2,11.5,64,0.00,CLR,,0.00,1020.8,WeatherDisplay:10.37,2013-06-24 17:26:00,
2013-06-24 12:31:00,86.5,74.2,29.95,SSE,156,4.7,12.0,67,0.00,CLR,,0.00,1002.1,WeatherDisplay:10.37,2013-06-24 17:31:00,
2013-06-24 12:36:00,87.0,73.8,29.95,SE,144,8.5,14.0,65,0.00,CLR,,0.00,1002.1,WeatherDisplay:10.37,2013-06-24 17:36:00,
2013-06-24 12:41:00,87.2,73.5,29.95,SSE,150,5.2,12.7,64,0.00,CLR,,0.00,1018.6,WeatherDisplay:10.37,2013-06-24 17:41:00,
2013-06-24 12:47:00,87.2,74.0,29.94,SSW,193,4.1,10.4,65,0.00,CLR,,0.00,1034.0,WeatherDisplay:10.37,2013-06-24 17:47:00,
2013-06-24 12:52:00,87.9,75.1,29.94,South,191,4.6,12.0,66,0.00,CLR,,0.00,1043.9,WeatherDisplay:10.37,2013-06-24 17:52:00,
2013-06-24 12:57:00,87.6,73.4,29.94,SSE,154,5.8,10.0,63,0.00,CLR,,0.00,1025.2,WeatherDisplay:10.37,2013-06-24 17:57:00,
2013-06-24 13:02:00,87.6,73.9,29.94,SSE,160,6.4,15.0,64,0.00,CLR,,0.00,1140.7,WeatherDisplay:10.37,2013-06-24 18:02:00,
2013-06-24 13:08:00,87.5,73.8,29.94,SSE,157,5.1,11.5,64,0.00,CLR,,0.00,1041.7,WeatherDisplay:10.37,2013-06-24 18:08:00,
2013-06-24 13:13:00,87.6,73.0,29.94,SSE,160,8.1,18.4,62,0.00,CLR,,0.00,1030.7,WeatherDisplay:10.37,2013-06-24 18:13:00,
2013-06-24 13:18:00,87.7,73.5,29.93,South,177,7.6,12.0,63,0.00,SCT,,0.00,1065.9,WeatherDisplay:10.37,2013-06-24 18:18:00,
2013-06-24 13:24:00,88.1,73.4,29.93,SSE,152,6.7,11.5,62,0.00,SCT,,0.00,1046.1,WeatherDisplay:10.37,2013-06-24 18:24:00,
2013-06-24 13:29:00,88.1,73.4,29.93,SSE,167,6.7,11.5,62,0.00,SCT,,0.00,1015.3,WeatherDisplay:10.37,2013-06-24 18:29:00,
2013-06-24 13:34:00,87.9,73.7,29.93,SSW,197,6.6,11.5,63,0.00,SCT,,0.00,931.7,WeatherDisplay:10.37,2013-06-24 18:34:00,
2013-06-24 13:39:00,88.3,72.7,29.93,SSE,162,7.8,15.0,60,0.00,SCT,,0.00,1092.3,WeatherDisplay:10.37,2013-06-24 18:39:00,
2013-06-24 13:44:00,88.5,72.3,29.93,SSE,155,6.4,13.8,59,0.00,SCT,,0.00,1129.7,WeatherDisplay:10.37,2013-06-24 18:44:00,
2013-06-24 13:50:00,87.9,72.8,29.92,SSE,166,7.7,11.5,61,0.00,SCT,,0.00,841.5,WeatherDisplay:10.37,2013-06-24 18:50:00,
2013-06-24 13:55:00,87.6,72.5,29.92,SSE,167,7.0,13.0,61,0.00,SCT,,0.00,605.0,WeatherDisplay:10.37,2013-06-24 18:55:00,
2013-06-24 14:00:00,87.1,72.0,29.92,SSE,168,7.4,12.7,61,0.00,SCT,,0.00,684.2,WeatherDisplay:10.37,2013-06-24 19:00:00,
2013-06-24 14:05:00,87.4,72.3,29.92,SSE,154,6.5,13.8,61,0.00,SCT,,0.00,704.0,WeatherDisplay:10.37,2013-06-24 19:05:00,
2013-06-24 14:10:00,86.6,71.1,29.91,SSE,152,4.7,8.0,60,0.00,SCT,,0.00,371.8,WeatherDisplay:10.37,2013-06-24 19:10:00,
2013-06-24 14:15:00,86.9,72.8,29.91,SSE,147,5.9,8.1,63,0.00,CLR,,0.00,706.2,WeatherDisplay:10.37,2013-06-24 19:15:00,
2013-06-24 14:20:00,87.6,73.4,29.91,SSE,167,3.1,7.0,63,0.00,CLR,,0.00,607.2,WeatherDisplay:10.37,2013-06-24 19:20:00,
2013-06-24 14:26:00,88.1,73.0,29.91,South,179,5.4,11.5,61,0.00,CLR,,0.00,997.7,WeatherDisplay:10.37,2013-06-24 19:26:00,
2013-06-24 14:32:00,88.9,72.2,29.91,SE,144,2.5,12.7,58,0.00,SCT,,0.00,1063.7,WeatherDisplay:10.37,2013-06-24 19:32:00,
2013-06-24 14:37:00,89.4,72.7,29.91,SSE,152,5.6,9.2,58,0.00,SCT,,0.00,1051.6,WeatherDisplay:10.37,2013-06-24 19:37:00,
2013-06-24 14:42:00,88.9,72.2,29.90,South,179,9.8,19.6,58,0.00,SCT,,0.00,721.6,WeatherDisplay:10.37,2013-06-24 19:42:00,
2013-06-24 14:47:00,89.5,72.8,29.90,SSW,202,7.5,13.8,58,0.00,CLR,,0.00,1026.3,WeatherDisplay:10.37,2013-06-24 19:47:00,
2013-06-24 14:52:00,89.6,73.4,29.90,SSW,201,6.0,11.0,59,0.00,CLR,,0.00,775.5,WeatherDisplay:10.37,2013-06-24 19:52:00,
2013-06-24 14:57:00,89.4,72.7,29.90,SSE,156,5.5,10.4,58,0.00,CLR,,0.00,992.2,WeatherDisplay:10.37,2013-06-24 19:57:00,
2013-06-24 15:02:00,89.2,73.0,29.89,SSE,156,7.8,13.8,59,0.00,CLR,,0.00,1025.2,WeatherDisplay:10.37,2013-06-24 20:02:00,
2013-06-24 15:07:00,89.3,73.1,29.89,SE,142,7.2,19.6,59,0.00,CLR,,0.00,1040.6,WeatherDisplay:10.37,2013-06-24 20:07:00,
2013-06-24 15:13:00,89.9,73.7,29.89,SSE,160,4.3,13.8,59,0.00,CLR,,0.00,1063.7,WeatherDisplay:10.37,2013-06-24 20:13:00,
2013-06-24 15:18:00,90.5,74.2,29.89,South,180,6.2,16.0,59,0.00,CLR,,0.00,1026.3,WeatherDisplay:10.37,2013-06-24 20:18:00,
2013-06-24 15:23:00,89.9,73.1,29.88,South,182,6.4,11.5,58,0.00,CLR,,0.00,862.4,WeatherDisplay:10.37,2013-06-24 20:23:00,
2013-06-24 15:28:00,89.9,73.7,29.88,SSE,147,7.1,15.0,59,0.00,CLR,,0.00,928.4,WeatherDisplay:10.37,2013-06-24 20:28:00,
2013-06-24 15:33:00,90.0,73.2,29.88,SSE,165,6.9,13.8,58,0.00,SCT,,0.00,920.7,WeatherDisplay:10.37,2013-06-24 20:33:00,
2013-06-24 15:39:00,90.0,73.2,29.88,SSE,149,6.2,10.4,58,0.00,SCT,,0.00,773.3,WeatherDisplay:10.37,2013-06-24 20:39:00,
2013-06-24 15:44:00,89.5,72.3,29.88,SE,145,4.7,9.2,57,0.00,SCT,,0.00,578.6,WeatherDisplay:10.37,2013-06-24 20:44:00,
2013-06-24 15:50:00,88.6,72.4,29.88,SSW,197,7.1,12.0,59,0.00,SCT,,0.00,369.6,WeatherDisplay:10.37,2013-06-24 20:50:00,
2013-06-24 15:56:00,87.5,71.9,29.88,SSE,166,6.4,11.5,60,0.00,SCT,,0.00,367.4,WeatherDisplay:10.37,2013-06-24 20:56:00,
2013-06-24 16:01:00,88.2,73.5,29.88,SE,145,7.2,10.4,62,0.00,SCT,,0.00,854.7,WeatherDisplay:10.37,2013-06-24 21:01:00,
2013-06-24 16:06:00,88.9,73.2,29.88,SSE,147,9.8,16.1,60,0.00,SCT,,0.00,688.6,WeatherDisplay:10.37,2013-06-24 21:06:00,
2013-06-24 16:11:00,88.6,72.9,29.88,SSE,151,4.6,10.4,60,0.00,SCT,,0.00,435.6,WeatherDisplay:10.37,2013-06-24 21:11:00,
2013-06-24 16:17:00,88.7,72.5,29.88,SSE,168,10.1,17.3,59,0.00,SCT,,0.00,954.8,WeatherDisplay:10.37,2013-06-24 21:17:00,
2013-06-24 16:22:00,89.5,73.8,29.88,SSE,162,4.3,11.5,60,0.00,SCT,,0.00,860.2,WeatherDisplay:10.37,2013-06-24 21:22:00,
2013-06-24 16:27:00,90.3,74.5,29.88,SE,137,5.4,11.0,60,0.00,SCT,,0.00,767.8,WeatherDisplay:10.37,2013-06-24 21:27:00,
2013-06-24 16:32:00,90.5,73.2,29.87,SSE,153,8.7,16.0,57,0.00,SCT,,0.00,763.4,WeatherDisplay:10.37,2013-06-24 21:32:00,
2013-06-24 16:38:00,90.3,73.5,29.87,SSE,147,3.0,11.5,58,0.00,SCT,,0.00,707.3,WeatherDisplay:10.37,2013-06-24 21:38:00,
2013-06-24 16:43:00,90.7,74.4,29.87,SSE,151,3.5,11.5,59,0.00,SCT,,0.00,833.8,WeatherDisplay:10.37,2013-06-24 21:43:00,
2013-06-24 16:48:00,90.2,72.9,29.87,SSE,158,12.4,20.0,57,0.00,CLR,,0.00,844.8,WeatherDisplay:10.37,2013-06-24 21:48:00,
2013-06-24 16:53:00,89.6,74.4,29.87,SSE,152,2.5,6.9,61,0.00,CLR,,0.00,760.1,WeatherDisplay:10.37,2013-06-24 21:53:00,
2013-06-24 16:58:00,90.6,74.8,29.86,SSE,162,7.1,12.0,60,0.00,CLR,,0.00,740.3,WeatherDisplay:10.37,2013-06-24 21:58:00,
2013-06-24 17:03:00,90.3,73.0,29.86,SSE,158,6.0,13.8,57,0.00,SCT,,0.00,738.1,WeatherDisplay:10.37,2013-06-24 22:03:00,
2013-06-24 17:09:00,90.1,73.8,29.86,SSE,155,5.6,11.5,59,0.00,SCT,,0.00,701.8,WeatherDisplay:10.37,2013-06-24 22:09:00,
2013-06-24 17:14:00,90.4,74.1,29.86,South,171,4.7,10.4,59,0.00,SCT,,0.00,594.0,WeatherDisplay:10.37,2013-06-24 22:14:00,
2013-06-24 17:19:00,89.6,72.9,29.86,SSE,154,6.1,11.5,58,0.00,SCT,,0.00,657.8,WeatherDisplay:10.37,2013-06-24 22:19:00,
2013-06-24 17:24:00,89.0,72.3,29.85,SSE,156,6.5,15.0,58,0.00,SCT,,0.00,168.3,WeatherDisplay:10.37,2013-06-24 22:24:00,
2013-06-24 17:29:00,89.1,72.4,29.85,South,169,8.7,12.7,58,0.00,SCT,,0.00,589.6,WeatherDisplay:10.37,2013-06-24 22:29:00,
2013-06-24 17:35:00,89.3,73.1,29.85,SSE,157,3.1,9.2,59,0.00,SCT,,0.00,441.1,WeatherDisplay:10.37,2013-06-24 22:35:00,
2013-06-24 17:40:00,89.1,71.9,29.85,SSE,161,7.3,10.4,57,0.00,SCT,,0.00,543.4,WeatherDisplay:10.37,2013-06-24 22:40:00,
2013-06-24 17:45:00,89.4,72.2,29.85,SSE,156,4.7,9.2,57,0.00,SCT,,0.00,475.2,WeatherDisplay:10.37,2013-06-24 22:45:00,
2013-06-24 17:50:00,89.0,72.3,29.85,South,170,7.3,10.0,58,0.00,SCT,,0.00,462.0,WeatherDisplay:10.37,2013-06-24 22:50:00,
2013-06-24 17:55:00,89.3,72.6,29.85,SSE,156,5.6,10.4,58,0.00,SCT,,0.00,490.6,WeatherDisplay:10.37,2013-06-24 22:55:00,
2013-06-24 18:01:00,89.3,72.1,29.85,SSE,164,5.6,11.5,57,0.00,SCT,,0.00,429.0,WeatherDisplay:10.37,2013-06-24 23:01:00,
2013-06-24 18:06:00,89.2,73.0,29.84,SSE,156,2.4,9.0,59,0.00,SCT,,0.00,415.8,WeatherDisplay:10.37,2013-06-24 23:06:00,
2013-06-24 18:11:00,88.9,71.7,29.84,SSE,156,8.4,14.0,57,0.00,SCT,,0.00,336.6,WeatherDisplay:10.37,2013-06-24 23:11:00,
2013-06-24 18:16:00,88.4,70.7,29.84,SSE,158,5.9,11.0,56,0.00,CLR,,0.00,363.0,WeatherDisplay:10.37,2013-06-24 23:16:00,
2013-06-24 18:22:00,88.5,72.3,29.84,SE,140,5.3,9.2,59,0.00,CLR,,0.00,380.6,WeatherDisplay:10.37,2013-06-24 23:22:00,
2013-06-24 18:27:00,88.5,72.3,29.84,SSE,156,3.5,6.0,59,0.00,CLR,,0.00,275.0,WeatherDisplay:10.37,2013-06-24 23:27:00,
2013-06-24 18:33:00,87.9,71.8,29.84,SSE,154,2.7,6.0,59,0.00,CLR,,0.00,163.9,WeatherDisplay:10.37,2013-06-24 23:33:00,
2013-06-24 18:39:00,87.5,71.4,29.84,SSE,150,1.6,9.2,59,0.00,CLR,,0.00,275.0,WeatherDisplay:10.37,2013-06-24 23:39:00,
2013-06-24 18:44:00,87.8,72.7,29.84,SSE,148,1.2,3.5,61,0.00,CLR,,0.00,382.8,WeatherDisplay:10.37,2013-06-24 23:44:00,
2013-06-24 18:49:00,87.9,71.8,29.84,SSE,151,4.8,11.5,59,0.00,CLR,,0.00,140.8,WeatherDisplay:10.37,2013-06-24 23:49:00,
2013-06-24 18:54:00,87.0,71.4,29.84,SSE,151,2.1,5.8,60,0.00,CLR,,0.00,114.4,WeatherDisplay:10.37,2013-06-24 23:54:00,
2013-06-24 18:59:00,86.4,71.4,29.84,South,180,3.4,5.8,61,0.00,CLR,,0.00,110.0,WeatherDisplay:10.37,2013-06-24 23:59:00,
2013-06-24 19:04:00,86.2,71.6,29.84,SSE,164,1.0,4.6,62,0.00,CLR,,0.00,227.7,WeatherDisplay:10.37,2013-06-25 00:04:00,
2013-06-24 19:09:00,86.6,72.5,29.84,SSE,163,2.0,5.0,63,0.00,CLR,,0.00,293.7,WeatherDisplay:10.37,2013-06-25 00:09:00,
2013-06-24 19:14:00,87.4,72.8,29.84,SSE,162,3.7,5.8,62,0.00,CLR,,0.00,229.9,WeatherDisplay:10.37,2013-06-25 00:14:00,
2013-06-24 19:20:00,87.1,72.5,29.84,SSE,162,2.5,5.8,62,0.00,CLR,,0.00,232.1,WeatherDisplay:10.37,2013-06-25 00:20:00,
2013-06-24 19:25:00,87.0,71.9,29.84,SSE,159,2.8,5.8,61,0.00,CLR,,0.00,140.8,WeatherDisplay:10.37,2013-06-25 00:25:00,
2013-06-24 19:30:00,86.5,71.9,29.84,SSE,158,3.9,10.4,62,0.00,CLR,,0.00,92.4,WeatherDisplay:10.37,2013-06-25 00:30:00,
2013-06-24 19:35:00,85.8,71.3,29.84,SSE,151,3.7,6.9,62,0.00,CLR,,0.00,51.7,WeatherDisplay:10.37,2013-06-25 00:35:00,
2013-06-24 19:40:00,85.3,71.3,29.85,SSE,151,3.0,10.0,63,0.00,CLR,,0.00,48.4,WeatherDisplay:10.37,2013-06-25 00:40:00,
2013-06-24 19:45:00,84.9,71.8,29.85,East,90,1.5,4.6,65,0.00,CLR,,0.00,44.0,WeatherDisplay:10.37,2013-06-25 00:45:00,
2013-06-24 19:50:00,84.3,71.2,29.85,ESE,102,2.3,4.0,65,0.00,CLR,,0.00,40.7,WeatherDisplay:10.37,2013-06-25 00:50:00,
2013-06-24 19:55:00,84.0,71.0,29.84,ESE,102,1.6,3.5,65,0.00,CLR,,0.00,35.2,WeatherDisplay:10.37,2013-06-25 00:55:00,
2013-06-24 20:00:00,83.8,70.8,29.84,ESE,103,0.9,3.5,65,0.00,CLR,,0.00,30.8,WeatherDisplay:10.37,2013-06-25 01:00:00,
2013-06-24 20:06:00,83.5,70.5,29.84,ESE,103,1.2,4.6,65,0.00,CLR,,0.00,27.5,WeatherDisplay:10.37,2013-06-25 01:06:00,
2013-06-24 20:11:00,83.1,70.6,29.84,ESE,103,0.9,4.0,66,0.00,CLR,,0.00,23.1,WeatherDisplay:10.37,2013-06-25 01:11:00,
2013-06-24 20:16:00,82.8,70.7,29.84,ESE,106,2.0,5.0,67,0.00,CLR,,0.00,20.9,WeatherDisplay:10.37,2013-06-25 01:16:00,
2013-06-24 20:21:00,82.6,71.0,29.84,ESE,106,0.2,2.3,68,0.00,CLR,,0.00,19.8,WeatherDisplay:10.37,2013-06-25 01:21:00,
2013-06-24 20:27:00,82.3,70.7,29.84,ESE,106,2.4,6.0,68,0.00,CLR,,0.00,15.4,WeatherDisplay:10.37,2013-06-25 01:27:00,
2013-06-24 20:32:00,82.2,71.0,29.83,ESE,106,1.4,3.5,69,0.00,CLR,,0.00,13.2,WeatherDisplay:10.37,2013-06-25 01:32:00,
2013-06-24 20:37:00,81.9,70.7,29.83,ESE,107,2.7,6.0,69,0.00,CLR,,0.00,9.9,WeatherDisplay:10.37,2013-06-25 01:37:00,
2013-06-24 20:42:00,81.7,71.0,29.83,ESE,112,2.8,6.0,70,0.00,CLR,,0.00,5.5,WeatherDisplay:10.37,2013-06-25 01:42:00,
2013-06-24 20:48:00,81.4,70.7,29.83,ESE,112,0.3,3.5,70,0.00,CLR,,0.00,0.0,WeatherDisplay:10.37,2013-06-25 01:48:00,
2013-06-24 20:53:00,81.2,70.9,29.83,ESE,115,3.1,8.1,71,0.00,CLR,,0.00,0.0,WeatherDisplay:10.37,2013-06-25 01:53:00,
2013-06-24 20:58:00,81.3,71.0,29.83,SSE,154,2.0,5.0,71,0.00,CLR,,0.00,0.0,WeatherDisplay:10.37,2013-06-25 01:58:00,
2013-06-24 21:04:00,81.1,70.8,29.83,SSE,151,1.2,6.0,71,0.00,CLR,,0.00,0.0,WeatherDisplay:10.37,2013-06-25 02:04:00,
2013-06-24 21:09:00,81.2,70.5,29.83,SSE,147,2.3,9.0,70,0.00,CLR,,0.00,0.0,WeatherDisplay:10.37,2013-06-25 02:09:00,
2013-06-24 21:14:00,81.2,70.5,29.83,SE,145,2.5,6.9,70,0.00,CLR,,0.00,0.0,WeatherDisplay:10.37,2013-06-25 02:14:00,
2013-06-24 21:19:00,81.1,70.4,29.83,SE,141,0.7,5.8,70,0.00,CLR,,0.00,0.0,WeatherDisplay:10.37,2013-06-25 02:19:00,
2013-06-24 21:24:00,81.2,70.5,29.83,SE,141,1.7,6.9,70,0.00,CLR,,0.00,0.0,WeatherDisplay:10.37,2013-06-25 02:24:00,
2013-06-24 21:30:00,81.1,70.4,29.83,SE,138,2.5,5.0,70,0.00,CLR,,0.00,0.0,WeatherDisplay:10.37,2013-06-25 02:30:00,
2013-06-24 21:35:00,81.2,70.1,29.84,SE,137,2.7,5.0,69,0.00,CLR,,0.00,0.0,WeatherDisplay:10.37,2013-06-25 02:35:00,
2013-06-24 21:41:00,81.3,70.2,29.84,SE,137,2.5,6.9,69,0.00,CLR,,0.00,0.0,WeatherDisplay:10.37,2013-06-25 02:41:00,
2013-06-24 21:46:00,81.1,70.0,29.84,SE,137,2.0,3.5,69,0.00,CLR,,0.00,0.0,WeatherDisplay:10.37,2013-06-25 02:46:00,
2013-06-24 21:51:00,81.0,69.9,29.84,SE,141,4.6,9.0,69,0.00,CLR,,0.00,0.0,WeatherDisplay:10.37,2013-06-25 02:51:00,
2013-06-24 21:57:00,81.3,70.2,29.85,SE,141,2.1,6.0,69,0.00,CLR,,0.00,0.0,WeatherDisplay:10.37,2013-06-25 02:57:00,
2013-06-24 22:02:00,80.9,69.8,29.85,SE,141,1.9,5.8,69,0.00,CLR,,0.00,0.0,WeatherDisplay:10.37,2013-06-25 03:02:00,
2013-06-24 22:07:00,80.9,70.2,29.85,SE,143,2.5,6.0,70,0.00,CLR,,0.00,0.0,WeatherDisplay:10.37,2013-06-25 03:07:00,
2013-06-24 22:12:00,81.0,69.9,29.85,SSE,153,3.4,9.2,69,0.00,CLR,,0.00,0.0,WeatherDisplay:10.37,2013-06-25 03:12:00,
2013-06-24 22:17:00,81.1,70.0,29.85,SSE,148,2.1,9.2,69,0.00,CLR,,0.00,0.0,WeatherDisplay:10.37,2013-06-25 03:17:00,
2013-06-24 22:23:00,81.0,69.9,29.86,SE,139,2.2,6.9,69,0.00,CLR,,0.00,0.0,WeatherDisplay:10.37,2013-06-25 03:23:00,
2013-06-24 22:28:00,81.1,70.0,29.86,SE,137,4.5,8.0,69,0.00,CLR,,0.00,0.0,WeatherDisplay:10.37,2013-06-25 03:28:00,
2013-06-24 22:34:00,81.1,70.0,29.86,SE,143,2.1,11.5,69,0.00,CLR,,0.00,0.0,WeatherDisplay:10.37,2013-06-25 03:34:00,
2013-06-24 22:39:00,80.9,69.8,29.87,SE,141,4.2,7.0,69,0.00,CLR,,0.00,0.0,WeatherDisplay:10.37,2013-06-25 03:39:00,
2013-06-24 22:45:00,80.5,69.8,29.87,SE,141,0.2,6.9,70,0.00,CLR,,0.00,0.0,WeatherDisplay:10.37,2013-06-25 03:45:00,
2013-06-24 22:51:00,80.3,69.6,29.87,SE,142,2.9,6.0,70,0.00,CLR,,0.00,0.0,WeatherDisplay:10.37,2013-06-25 03:51:00,
2013-06-24 22:56:00,80.4,69.7,29.88,SE,145,2.4,8.1,70,0.00,CLR,,0.00,0.0,WeatherDisplay:10.37,2013-06-25 03:56:00,
2013-06-24 23:01:00,80.2,69.9,29.88,SE,145,1.5,5.0,71,0.00,CLR,,0.00,0.0,WeatherDisplay:10.37,2013-06-25 04:01:00,
2013-06-24 23:06:00,79.9,69.7,29.88,SE,145,0.6,2.3,71,0.00,CLR,,0.00,0.0,WeatherDisplay:10.37,2013-06-25 04:06:00,
2013-06-24 23:11:00,79.9,70.1,29.89,SE,145,1.8,5.8,72,0.00,CLR,,0.00,0.0,WeatherDisplay:10.37,2013-06-25 04:11:00,
2013-06-24 23:16:00,79.9,70.1,29.89,SE,145,0.5,3.5,72,0.00,CLR,,0.00,0.0,WeatherDisplay:10.37,2013-06-25 04:16:00,
2013-06-24 23:21:00,79.8,70.0,29.89,SE,145,1.2,2.3,72,0.00,CLR,,0.00,0.0,WeatherDisplay:10.37,2013-06-25 04:21:00,
2013-06-24 23:26:00,79.5,70.1,29.89,SE,145,1.5,5.8,73,0.00,CLR,,0.00,0.0,WeatherDisplay:10.37,2013-06-25 04:26:00,
2013-06-24 23:31:00,79.5,70.1,29.89,SE,144,2.6,5.0,73,0.00,CLR,,0.00,0.0,WeatherDisplay:10.37,2013-06-25 04:31:00,
2013-06-24 23:36:00,79.7,69.9,29.89,SE,145,3.4,8.0,72,0.00,CLR,,0.00,0.0,WeatherDisplay:10.37,2013-06-25 04:36:00,
2013-06-24 23:41:00,79.9,70.1,29.89,SE,143,4.6,4.6,72,0.00,CLR,,0.00,0.0,WeatherDisplay:10.37,2013-06-25 04:41:00,
2013-06-24 23:46:00,80.1,69.8,29.89,SSE,148,2.8,2.8,71,0.00,CLR,,0.00,0.0,WeatherDisplay:10.37,2013-06-25 04:46:00,
2013-06-24 23:51:00,80.3,69.6,29.89,SSE,151,2.7,6.0,70,0.00,CLR,,0.00,0.0,WeatherDisplay:10.37,2013-06-25 04:51:00,
2013-06-24 23:56:00,80.5,69.4,29.88,SSE,163,3.5,11.5,69,0.00,CLR,,0.00,0.0,WeatherDisplay:10.37,2013-06-25 04:56:00,